Portada
METAR-TAF:

METAR-TAF

Aeropuertos :

Béziers, Francia

latitud: 43-19N, longitud: 003-21E, altitud: 17 m

Observación

El informe se hizo hace 37 minutos, a las 04:00 UTC
Viento 7 kt del oeste
Temperatura 20°C
Humedad 83%
Presión 1012 hPa
Visibilidad 10 km o más
sin nubes por debajo de 1500 m y sin presencia de cumulonimbus.

METAR: LFMU 210400Z AUTO 27007KT CAVOK 20/17 Q1012 NOSIG

Hora: 06:37 (04:37 UTC)

Pronóstico

El informe se hizo hace 2 horas y 37 minutos, a las 02:00 UTC
Pronóstico válido del 21 a las 03 UTC al 22 a las 03 UTC
Viento 5 kt del oeste
Visibilidad 10 km o más
sin nubes por debajo de 1500 m y sin presencia de cumulonimbus.
Evolucionando progresivamente
del 21 a las 11 UTC al 21 a las 13 UTC
Viento 10 kt del sur-sureste
Evolucionando progresivamente
del 21 a las 20 UTC al 21 a las 22 UTC
Viento 5 kt del noroeste

TAF: LFMU 210200Z 2103/2203 26005KT CAVOK BECMG 2111/2113 16010KT BECMG 2120/2122 32005KT

Observaciones y pronósticos meteorológicos de más de 4000 aeropuertos (mensajes METAR y TAF).

Los puntos amarillos y rojos representan las estaciones disponibles.

Ponga el ratón en el punto deseado para ver el nombre de la estación.

Haga clic para ver las observaciones y los pronósticos meteorológicos.

Para cambiar el mapa : haga clic en los botones verdes con una cruz de color negro para hacer un zoom, en el botón verde con un guión para alejar o en las flechas verdes para mapas adyacentes.


METAR-TAF: